Time;durP1;ratioP1;P1;durP2;ratioP2;P2;SDS_P1;SDS_P2;PMS_P1;PMS_P2;Temp;Humidity;BMP_temperature;BMP_pressure;BME280_temperature;BME280_humidity;BME280_pressure;Samples;Min_cycle;Max_cycle;Signal;HPM_P1;HPM_P2
2022/06/01 00:01:34;;;;;;;0.10;0.10;;;10.50;99.90;;;;;;5033586;28;20033;-84
2022/06/01 00:04:00;;;;;;;0.20;0.20;;;10.50;99.90;;;;;;5017568;28;20049;-83
2022/06/01 00:06:26;;;;;;;0.10;0.10;;;10.40;99.90;;;;;;5014287;28;20045;-83
2022/06/01 00:08:52;;;;;;;0.00;0.00;;;10.40;99.90;;;;;;5031384;28;20053;-84
2022/06/01 00:11:18;;;;;;;0.10;0.10;;;10.40;99.90;;;;;;5017433;28;20038;-83
2022/06/01 00:13:44;;;;;;;0.10;0.10;;;10.30;99.90;;;;;;5033640;28;20483;-84
2022/06/01 00:16:10;;;;;;;0.10;0.10;;;10.30;99.90;;;;;;5008988;28;20103;-83
2022/06/01 00:18:37;;;;;;;0.30;0.30;;;10.20;99.90;;;;;;5027549;28;20038;-83
2022/06/01 00:21:03;;;;;;;0.20;0.20;;;10.20;99.90;;;;;;5013720;28;20400;-84
2022/06/01 00:23:29;;;;;;;0.20;0.20;;;10.20;99.90;;;;;;5013781;28;20491;-88
2022/06/01 00:25:55;;;;;;;0.00;0.00;;;10.20;99.90;;;;;;5015317;28;20048;-88
2022/06/01 00:28:21;;;;;;;0.25;0.15;;;10.20;99.90;;;;;;5033200;28;20045;-88
2022/06/01 00:30:47;;;;;;;0.05;0.05;;;10.20;99.90;;;;;;5017088;28;20034;-88
2022/06/01 00:33:12;;;;;;;0.10;0.10;;;10.20;99.90;;;;;;5016720;28;20144;-88
2022/06/01 00:35:38;;;;;;;0.10;0.10;;;10.20;99.90;;;;;;5033131;28;20049;-87
2022/06/01 00:38:05;;;;;;;0.00;0.00;;;10.20;99.90;;;;;;5016364;28;20041;-88
2022/06/01 00:40:31;;;;;;;0.13;0.13;;;10.20;99.90;;;;;;5032802;28;20047;-84
2022/06/01 00:42:59;;;;;;;0.00;0.00;;;10.30;99.90;;;;;;5000140;28;20124;-84
2022/06/01 00:45:28;;;;;;;0.25;0.25;;;10.30;99.90;;;;;;5032515;28;20475;-84
2022/06/01 00:47:54;;;;;;;1.35;0.50;;;10.30;99.90;;;;;;5031800;28;20079;-84
2022/06/01 00:50:39;;;;;;;0.10;0.10;;;10.30;99.90;;;;;;5016055;28;20052;-83
2022/06/01 00:53:13;;;;;;;0.10;0.10;;;10.30;99.90;;;;;;5033390;28;20129;-84
2022/06/01 00:55:49;;;;;;;0.10;0.10;;;10.30;99.90;;;;;;5032814;28;20076;-88
2022/06/01 00:58:41;;;;;;;0.08;0.08;;;10.30;99.90;;;;;;5007709;28;20046;-89
2022/06/01 01:01:15;;;;;;;0.15;0.15;;;10.30;99.90;;;;;;5027517;28;20518;-89
2022/06/01 01:03:42;;;;;;;0.10;0.10;;;10.30;99.90;;;;;;5032790;28;20128;-89
2022/06/01 01:06:32;;;;;;;0.10;0.10;;;10.20;99.90;;;;;;5016329;28;20049;-89
2022/06/01 01:08:59;;;;;;;0.10;0.10;;;10.30;99.90;;;;;;5024382;28;20039;-89
2022/06/01 01:11:33;;;;;;;0.00;0.00;;;10.20;99.90;;;;;;4999966;28;20045;-89
2022/06/01 01:13:59;;;;;;;0.40;0.40;;;10.20;99.90;;;;;;5016347;28;20040;-84
2022/06/01 01:16:27;;;;;;;0.03;0.03;;;10.20;99.90;;;;;;5016015;28;20076;-84
2022/06/01 01:18:54;;;;;;;0.05;0.05;;;10.10;99.90;;;;;;5033006;28;20487;-84
2022/06/01 01:21:41;;;;;;;0.17;0.17;;;10.10;99.90;;;;;;5036334;28;20363;-84
2022/06/01 01:24:11;;;;;;;0.30;0.20;;;10.10;99.90;;;;;;5016094;28;20459;-83
2022/06/01 01:26:37;;;;;;;0.20;0.20;;;10.10;99.90;;;;;;5024601;28;20534;-84
2022/06/01 01:29:10;;;;;;;0.15;0.15;;;10.60;99.90;;;;;;5002991;28;20091;-84
2022/06/01 01:31:38;;;;;;;0.25;0.25;;;10.00;99.90;;;;;;5018942;28;20037;-84
2022/06/01 01:34:05;;;;;;;0.15;0.10;;;10.00;99.90;;;;;;5033789;28;20040;-84
2022/06/01 01:36:48;;;;;;;0.08;0.08;;;10.00;99.90;;;;;;5034752;28;20029;-84
2022/06/01 01:39:15;;;;;;;0.90;0.65;;;10.00;99.90;;;;;;5032035;28;20045;-84
2022/06/01 01:41:50;;;;;;;0.20;0.20;;;9.90;99.90;;;;;;5018845;28;20049;-84
2022/06/01 01:44:20;;;;;;;0.00;0.00;;;9.80;99.90;;;;;;5035720;28;20045;-84
2022/06/01 01:46:47;;;;;;;1.02;0.73;;;9.70;99.90;;;;;;5018651;28;20435;-84
2022/06/01 01:49:18;;;;;;;2.72;0.47;;;9.60;99.90;;;;;;5035722;28;20043;-84
2022/06/01 01:51:44;;;;;;;0.20;0.20;;;9.50;99.90;;;;;;5019769;28;20041;-84
2022/06/01 01:54:43;;;;;;;5.88;0.63;;;9.40;99.90;;;;;;5002969;28;20410;-84
2022/06/01 01:57:46;;;;;;;0.38;0.38;;;9.30;99.90;;;;;;5035479;28;20402;-84
2022/06/01 02:00:15;;;;;;;0.00;0.00;;;9.30;99.90;;;;;;5018913;28;20041;-84
2022/06/01 02:03:08;;;;;;;0.08;0.08;;;9.30;99.90;;;;;;5019002;28;20049;-87
2022/06/01 02:08:41;;;;;;;0.28;0.25;;;9.20;99.90;;;;;;5034479;28;20099;-88
2022/06/01 02:14:22;;;;;;;0.20;0.20;;;9.10;99.90;;;;;;5016066;28;20206;-88
2022/06/01 02:17:01;;;;;;;0.10;0.10;;;9.10;99.90;;;;;;5019155;28;20037;-88
2022/06/01 02:19:34;;;;;;;0.20;0.20;;;9.00;99.90;;;;;;5033700;28;20048;-88
2022/06/01 02:22:00;;;;;;;0.10;0.10;;;9.00;99.90;;;;;;5019104;28;20049;-88
2022/06/01 02:24:26;;;;;;;0.10;0.10;;;8.80;99.90;;;;;;5019106;28;20089;-88
2022/06/01 02:26:54;;;;;;;0.10;0.10;;;8.70;99.90;;;;;;4986735;28;20041;-88
2022/06/01 02:29:30;;;;;;;0.10;0.10;;;8.60;99.90;;;;;;5028123;28;20565;-87
2022/06/01 02:31:57;;;;;;;0.30;0.30;;;8.60;99.90;;;;;;5019269;28;20037;-88
2022/06/01 02:34:24;;;;;;;0.00;0.00;;;9.20;99.90;;;;;;5005921;28;20043;-88
2022/06/01 02:36:51;;;;;;;0.10;0.10;;;8.50;99.90;;;;;;5038748;28;20410;-88
2022/06/01 02:39:17;;;;;;;0.10;0.10;;;8.40;99.90;;;;;;5021872;28;20372;-87
2022/06/01 02:44:27;;;;;;;0.30;0.17;;;9.30;99.90;;;;;;5025024;28;20045;-88
2022/06/01 02:46:53;;;;;;;0.40;0.30;;;8.30;99.90;;;;;;5005628;28;20510;-88
2022/06/01 02:49:18;;;;;;;0.10;0.10;;;8.20;99.90;;;;;;5005867;28;20076;-88
2022/06/01 02:51:45;;;;;;;0.10;0.10;;;8.20;99.90;;;;;;5022033;28;20041;-88
2022/06/01 02:54:11;;;;;;;0.10;0.10;;;8.20;99.90;;;;;;5022305;28;20033;-88
2022/06/01 02:56:37;;;;;;;0.10;0.10;;;8.20;99.90;;;;;;5038404;28;20047;-88
2022/06/01 02:59:02;;;;;;;0.03;0.03;;;8.20;99.90;;;;;;5038419;28;20496;-88
2022/06/01 03:01:29;;;;;;;0.10;0.10;;;8.20;99.90;;;;;;5021317;28;20222;-88
2022/06/01 03:03:54;;;;;;;0.43;0.43;;;8.50;99.90;;;;;;5038178;28;20044;-88
2022/06/01 03:06:20;;;;;;;0.30;0.30;;;8.30;99.90;;;;;;5021640;28;20119;-88
2022/06/01 03:08:46;;;;;;;0.20;0.20;;;8.30;99.90;;;;;;5022071;28;20045;-89
2022/06/01 03:11:13;;;;;;;0.20;0.20;;;8.30;99.90;;;;;;5044794;28;20072;-88
2022/06/01 03:13:39;;;;;;;0.20;0.20;;;8.20;99.90;;;;;;5058001;28;20045;-88
2022/06/01 03:16:05;;;;;;;0.13;0.13;;;8.50;99.90;;;;;;5057937;28;20044;-88
2022/06/01 03:18:31;;;;;;;1.20;0.68;;;8.20;99.90;;;;;;5041304;28;20052;-88
2022/06/01 03:20:58;;;;;;;0.10;0.10;;;8.30;99.90;;;;;;5038369;28;20052;-88
2022/06/01 03:23:24;;;;;;;0.77;0.52;;;8.20;99.90;;;;;;5042408;28;20053;-88
2022/06/01 03:25:51;;;;;;;0.13;0.13;;;8.30;99.90;;;;;;5003848;28;20494;-88
2022/06/01 03:28:17;;;;;;;0.10;0.10;;;8.40;99.90;;;;;;5034519;28;20071;-88
2022/06/01 03:30:43;;;;;;;0.38;0.35;;;8.50;99.90;;;;;;5032634;28;20037;-88
2022/06/01 03:33:10;;;;;;;0.10;0.10;;;8.50;99.90;;;;;;5004768;28;20041;-88
2022/06/01 03:35:37;;;;;;;0.38;0.38;;;8.60;99.90;;;;;;5038012;28;20041;-88
2022/06/01 03:38:03;;;;;;;0.10;0.10;;;8.70;99.90;;;;;;5037705;28;20045;-88
2022/06/01 03:40:31;;;;;;;0.00;0.00;;;9.10;99.90;;;;;;5037675;28;20582;-88
2022/06/01 03:42:58;;;;;;;0.15;0.15;;;8.80;99.90;;;;;;5037361;28;20041;-84
2022/06/01 03:48:09;;;;;;;0.45;0.40;;;9.00;99.90;;;;;;5037349;28;20048;-84
2022/06/01 03:50:35;;;;;;;0.10;0.10;;;9.00;99.90;;;;;;5003454;28;20098;-83
2022/06/01 03:53:02;;;;;;;1.35;0.38;;;9.10;99.90;;;;;;5008951;28;20029;-83
2022/06/01 03:55:28;;;;;;;0.32;0.30;;;9.10;99.90;;;;;;5020572;28;20072;-84
2022/06/01 03:57:54;;;;;;;0.60;0.60;;;9.20;99.90;;;;;;5021359;28;20048;-84
2022/06/01 04:00:23;;;;;;;0.20;0.20;;;9.30;99.90;;;;;;5037182;28;20522;-88
2022/06/01 04:02:49;;;;;;;1.00;0.95;;;9.30;99.90;;;;;;5019962;28;20048;-89
2022/06/01 04:05:15;;;;;;;0.43;0.43;;;9.50;99.90;;;;;;5036863;28;20041;-87
2022/06/01 04:07:41;;;;;;;0.20;0.20;;;9.50;99.90;;;;;;5013953;28;20125;-88
2022/06/01 04:10:08;;;;;;;0.10;0.10;;;9.50;99.90;;;;;;5016691;28;20083;-87
2022/06/01 04:12:34;;;;;;;0.30;0.30;;;9.60;99.90;;;;;;5015644;28;20041;-87
2022/06/01 04:15:00;;;;;;;0.10;0.10;;;9.60;99.90;;;;;;5015389;28;20652;-87
2022/06/01 04:17:26;;;;;;;0.30;0.30;;;9.70;99.90;;;;;;5035700;28;20394;-84
2022/06/01 04:19:51;;;;;;;0.17;0.17;;;9.80;99.90;;;;;;5011782;28;20045;-84
2022/06/01 04:22:19;;;;;;;0.00;0.00;;;9.80;99.90;;;;;;4996282;28;20139;-84
2022/06/01 04:24:45;;;;;;;0.10;0.10;;;10.20;99.90;;;;;;5030127;28;20034;-84
2022/06/01 04:27:10;;;;;;;0.10;0.10;;;9.90;99.90;;;;;;5032455;28;20042;-84
2022/06/01 04:29:36;;;;;;;0.10;0.10;;;10.00;99.90;;;;;;5015792;28;20049;-84
2022/06/01 04:32:10;;;;;;;0.52;0.52;;;10.00;99.90;;;;;;5026364;28;20045;-84
2022/06/01 04:34:36;;;;;;;0.38;0.15;;;10.00;99.90;;;;;;5023160;28;20053;-84
2022/06/01 04:37:01;;;;;;;0.00;0.00;;;10.00;99.90;;;;;;4988819;28;20111;-84
2022/06/01 04:39:27;;;;;;;0.00;0.00;;;10.10;99.90;;;;;;5031199;28;20041;-84
2022/06/01 04:41:53;;;;;;;0.00;0.00;;;10.20;99.90;;;;;;4996132;28;20041;-84
2022/06/01 04:44:19;;;;;;;0.10;0.10;;;10.80;99.90;;;;;;5011744;28;20045;-84
2022/06/01 04:46:45;;;;;;;0.22;0.22;;;10.30;99.90;;;;;;5031116;28;20046;-84
2022/06/01 04:49:11;;;;;;;0.20;0.20;;;10.20;99.90;;;;;;5031387;28;20124;-84
2022/06/01 04:51:38;;;;;;;0.20;0.20;;;10.30;99.90;;;;;;5007893;28;20117;-84
2022/06/01 04:54:04;;;;;;;0.00;0.00;;;10.40;99.90;;;;;;5031477;28;20037;-84
2022/06/01 04:56:30;;;;;;;0.20;0.20;;;10.40;99.90;;;;;;5015696;28;20038;-84
2022/06/01 04:58:56;;;;;;;0.17;0.17;;;10.40;99.90;;;;;;5031709;28;20033;-84
2022/06/01 05:01:22;;;;;;;0.60;0.60;;;10.40;99.90;;;;;;5015112;28;20602;-83
2022/06/01 05:03:48;;;;;;;0.10;0.10;;;10.40;99.90;;;;;;5015995;28;20049;-83
2022/06/01 05:06:14;;;;;;;0.20;0.20;;;10.40;99.90;;;;;;5024640;28;20037;-84
2022/06/01 05:08:40;;;;;;;0.98;0.65;;;10.50;99.90;;;;;;5031388;28;20053;-85
2022/06/01 05:11:05;;;;;;;0.00;0.00;;;10.50;99.90;;;;;;5016129;28;20033;-84
2022/06/01 05:13:31;;;;;;;0.20;0.20;;;10.50;99.90;;;;;;5032520;28;20495;-84
2022/06/01 05:15:59;;;;;;;0.00;0.00;;;10.50;99.90;;;;;;5023486;28;20491;-84
2022/06/01 05:18:25;;;;;;;0.10;0.10;;;10.60;99.90;;;;;;5031681;28;20095;-84
2022/06/01 05:20:54;;;;;;;0.10;0.10;;;10.60;99.90;;;;;;5029890;28;20789;-84
2022/06/01 05:23:21;;;;;;;0.60;0.55;;;10.70;99.90;;;;;;5031773;28;20491;-87
2022/06/01 05:25:49;;;;;;;0.28;0.22;;;10.60;99.90;;;;;;5031261;28;20510;-88
2022/06/01 05:28:24;;;;;;;0.57;0.38;;;10.60;99.90;;;;;;5014819;28;20029;-87
2022/06/01 05:30:50;;;;;;;1.17;1.08;;;10.70;99.90;;;;;;5025832;28;20042;-87
2022/06/01 05:33:16;;;;;;;0.20;0.20;;;10.70;99.90;;;;;;4988754;28;20037;-87
2022/06/01 05:35:42;;;;;;;0.30;0.30;;;10.70;99.90;;;;;;4996002;28;20182;-88
2022/06/01 05:38:07;;;;;;;0.20;0.20;;;10.80;99.90;;;;;;5008155;28;20042;-88
2022/06/01 05:40:33;;;;;;;0.08;0.08;;;10.90;99.90;;;;;;5025439;28;20041;-84
2022/06/01 05:43:00;;;;;;;0.32;0.32;;;11.00;99.90;;;;;;5005507;28;20090;-84
2022/06/01 05:45:26;;;;;;;0.20;0.20;;;11.00;99.90;;;;;;5022527;28;20370;-84
2022/06/01 05:47:52;;;;;;;1.80;0.57;;;11.10;99.90;;;;;;5004320;28;20034;-84
2022/06/01 05:50:18;;;;;;;0.10;0.10;;;11.10;99.90;;;;;;4996810;28;20399;-84
2022/06/01 05:52:44;;;;;;;0.10;0.10;;;11.20;99.90;;;;;;5035125;28;20091;-84
2022/06/01 05:55:15;;;;;;;0.30;0.30;;;11.30;99.90;;;;;;5029805;28;20037;-84
2022/06/01 05:57:40;;;;;;;0.55;0.52;;;11.30;99.90;;;;;;5024496;28;20068;-84
2022/06/01 06:00:10;;;;;;;0.30;0.30;;;11.40;99.90;;;;;;5013056;28;20072;-84
2022/06/01 06:02:36;;;;;;;0.63;0.63;;;11.60;99.90;;;;;;5026414;28;20419;-84
2022/06/01 06:05:02;;;;;;;0.32;0.32;;;11.80;99.90;;;;;;5011211;28;20551;-84
2022/06/01 06:07:28;;;;;;;0.20;0.20;;;12.00;99.90;;;;;;5009477;28;20499;-84
2022/06/01 06:09:54;;;;;;;0.30;0.28;;;12.30;99.90;;;;;;5009773;28;20041;-83
2022/06/01 06:12:19;;;;;;;5.05;0.38;;;12.50;99.90;;;;;;5010552;28;20471;-84
2022/06/01 06:14:45;;;;;;;0.22;0.22;;;12.70;99.90;;;;;;5012445;28;20091;-83
2022/06/01 06:17:11;;;;;;;0.28;0.25;;;12.80;99.90;;;;;;5013642;28;20052;-83
2022/06/01 06:19:38;;;;;;;0.85;0.38;;;12.70;99.90;;;;;;5009235;28;20037;-84
2022/06/01 06:22:06;;;;;;;0.30;0.30;;;12.80;99.90;;;;;;4999976;28;20081;-83
2022/06/01 06:24:32;;;;;;;0.28;0.28;;;13.00;99.90;;;;;;5036185;28;20124;-83
2022/06/01 06:26:58;;;;;;;0.10;0.10;;;12.70;99.90;;;;;;5033343;28;20033;-84
2022/06/01 06:29:24;;;;;;;0.28;0.28;;;13.40;99.90;;;;;;5034426;28;20087;-90
2022/06/01 06:31:50;;;;;;;0.28;0.28;;;13.60;99.90;;;;;;5020306;28;20398;-90
2022/06/01 06:34:17;;;;;;;1.55;0.60;;;13.60;99.90;;;;;;5045659;22;20295;-90
2022/06/01 06:36:44;;;;;;;0.17;0.17;;;13.80;99.90;;;;;;5021307;28;20057;-90
2022/06/01 06:39:10;;;;;;;0.52;0.52;;;14.00;99.90;;;;;;5038509;28;20044;-90
2022/06/01 06:41:36;;;;;;;0.30;0.30;;;14.40;99.90;;;;;;5038476;28;20102;-90
2022/06/01 06:44:02;;;;;;;0.45;0.45;;;15.30;99.90;;;;;;5021600;28;20049;-89
2022/06/01 06:46:29;;;;;;;0.20;0.20;;;15.60;99.90;;;;;;5021952;28;20053;-85
2022/06/01 06:48:55;;;;;;;0.40;0.30;;;15.60;99.90;;;;;;5038664;28;20074;-85
2022/06/01 06:51:25;;;;;;;0.20;0.20;;;15.50;99.90;;;;;;5006738;28;20060;-84
2022/06/01 06:53:50;;;;;;;0.25;0.25;;;15.40;99.90;;;;;;5038659;28;20124;-84
2022/06/01 06:56:19;;;;;;;0.63;0.55;;;15.30;99.90;;;;;;5035496;28;20488;-85
2022/06/01 06:58:45;;;;;;;0.03;0.03;;;15.10;99.90;;;;;;5029081;28;20839;-85
2022/06/01 07:01:10;;;;;;;0.65;0.65;;;14.90;99.90;;;;;;5001301;28;20505;-86
2022/06/01 07:03:36;;;;;;;0.00;0.00;;;14.70;99.90;;;;;;5033556;28;20037;-89
2022/06/01 07:06:17;;;;;;;0.28;0.28;;;14.50;99.90;;;;;;5036931;28;20332;-89
2022/06/01 07:08:46;;;;;;;0.45;0.25;;;14.30;99.90;;;;;;5013897;28;20501;-89
2022/06/01 07:11:14;;;;;;;0.55;0.43;;;14.30;99.90;;;;;;5037953;28;20064;-89
2022/06/01 07:13:40;;;;;;;0.10;0.10;;;14.20;99.90;;;;;;5026562;28;20068;-89
2022/06/01 07:16:16;;;;;;;0.30;0.30;;;14.20;99.90;;;;;;5004669;28;20052;-89
2022/06/01 07:18:49;;;;;;;0.85;0.75;;;14.20;99.90;;;;;;5038080;28;20509;-88
2022/06/01 07:21:16;;;;;;;0.40;0.32;;;14.30;99.90;;;;;;5020957;28;20041;-90
2022/06/01 07:23:43;;;;;;;1.65;1.55;;;14.50;99.90;;;;;;5013785;28;20044;-89
2022/06/01 07:26:12;;;;;;;0.20;0.20;;;14.60;99.90;;;;;;5021258;28;20102;-89
2022/06/01 07:28:38;;;;;;;0.00;0.00;;;14.90;99.90;;;;;;5037036;28;20041;-90
2022/06/01 07:31:06;;;;;;;0.10;0.10;;;15.10;99.90;;;;;;5038171;28;20422;-90
2022/06/01 07:33:33;;;;;;;2.58;0.60;;;15.20;99.90;;;;;;5037001;28;20037;-89
2022/06/01 07:36:01;;;;;;;0.10;0.10;;;15.40;99.90;;;;;;5020618;28;20104;-90
2022/06/01 07:44:13;;;;;;;6.00;0.40;;;16.40;99.90;;;;;;5036445;28;20406;-90
2022/06/01 07:46:39;;;;;;;0.25;0.20;;;18.10;99.90;;;;;;5004736;28;20037;-88
2022/06/01 07:49:08;;;;;;;0.20;0.20;;;18.30;99.90;;;;;;5036899;28;20491;-88
2022/06/01 07:51:38;;;;;;;0.43;0.43;;;20.80;99.90;;;;;;5020580;28;20040;-87
2022/06/01 07:54:05;;;;;;;0.10;0.10;;;21.20;99.90;;;;;;5019883;28;20040;-84
2022/06/01 07:56:32;;;;;;;0.10;0.10;;;21.70;99.90;;;;;;5036782;28;20455;-84
2022/06/01 07:59:00;;;;;;;0.73;0.28;;;24.00;99.90;;;;;;5004839;28;20041;-84
2022/06/01 08:01:26;;;;;;;0.65;0.45;;;24.30;99.90;;;;;;5021067;28;20068;-84
2022/06/01 08:03:53;;;;;;;0.45;0.45;;;23.00;95.00;;;;;;5033889;28;20479;-82
2022/06/01 08:06:18;;;;;;;0.40;0.40;;;22.80;95.20;;;;;;5029786;28;20048;-81
2022/06/01 08:08:44;;;;;;;0.32;0.32;;;23.40;97.80;;;;;;5033022;28;20037;-87
2022/06/01 08:11:10;;;;;;;0.35;0.35;;;24.00;95.70;;;;;;5018102;28;20047;-87
2022/06/01 08:13:36;;;;;;;0.80;0.50;;;24.10;96.00;;;;;;5035564;28;20068;-87
2022/06/01 08:16:03;;;;;;;0.13;0.13;;;;;;;;;;5019781;28;20533;-87
2022/06/01 08:18:29;;;;;;;0.32;0.20;;;27.20;90.70;;;;;;5020612;28;20434;-87
2022/06/01 08:20:55;;;;;;;0.15;0.15;;;26.80;79.00;;;;;;5003127;28;20123;-87
2022/06/01 08:23:23;;;;;;;0.10;0.10;;;26.00;76.80;;;;;;5036514;28;20449;-88
2022/06/01 08:25:50;;;;;;;0.30;0.30;;;25.00;92.10;;;;;;5016527;28;20049;-88
2022/06/01 08:28:16;;;;;;;0.30;0.30;;;24.00;93.50;;;;;;5020390;28;20446;-88
2022/06/01 08:30:42;;;;;;;0.35;0.35;;;22.60;96.20;;;;;;5003142;28;20037;-88
2022/06/01 08:33:09;;;;;;;0.60;0.32;;;21.90;96.90;;;;;;5037174;28;20036;-87
2022/06/01 08:35:40;;;;;;;0.13;0.13;;;21.20;98.40;;;;;;5031795;28;20453;-87
2022/06/01 08:38:06;;;;;;;0.55;0.55;;;20.70;99.30;;;;;;5035673;28;20526;-87
2022/06/01 08:40:38;;;;;;;0.20;0.20;;;20.50;99.90;;;;;;5036140;28;20037;-88
2022/06/01 08:43:10;;;;;;;0.40;0.40;;;20.10;92.80;;;;;;5036334;28;20098;-85
2022/06/01 08:45:36;;;;;;;0.43;0.28;;;20.00;94.00;;;;;;5021861;28;20120;-85
2022/06/01 08:48:03;;;;;;;0.10;0.10;;;19.90;93.70;;;;;;5016292;28;20040;-85
2022/06/01 08:50:33;;;;;;;0.00;0.00;;;19.90;94.60;;;;;;5004457;28;20039;-85
2022/06/01 08:53:03;;;;;;;0.10;0.10;;;20.20;95.70;;;;;;5035771;28;20033;-85
2022/06/01 08:55:40;;;;;;;0.20;0.20;;;20.60;94.30;;;;;;5036128;28;20073;-85
2022/06/01 08:58:13;;;;;;;0.00;0.00;;;21.10;94.20;;;;;;5019530;28;20041;-85
2022/06/01 09:00:46;;;;;;;0.00;0.00;;;21.00;93.80;;;;;;5035963;28;20079;-82
2022/06/01 09:03:34;;;;;;;0.00;0.00;;;20.70;93.30;;;;;;5036125;28;20049;-82
2022/06/01 09:06:14;;;;;;;0.30;0.30;;;20.60;94.50;;;;;;5035609;28;20132;-81
2022/06/01 09:08:49;;;;;;;0.20;0.20;;;20.30;93.80;;;;;;5016288;28;20499;-82
2022/06/01 09:11:19;;;;;;;0.20;0.20;;;20.10;99.90;;;;;;5015915;28;20041;-81
2022/06/01 09:13:58;;;;;;;0.25;0.25;;;19.90;99.90;;;;;;5032260;28;20045;-81
2022/06/01 09:16:37;;;;;;;0.00;0.00;;;20.80;96.30;;;;;;5016196;28;20403;-89
2022/06/01 09:19:04;;;;;;;0.03;0.03;;;23.30;99.90;;;;;;5016160;28;20041;-88
2022/06/01 09:24:25;;;;;;;0.00;0.00;;;25.20;88.10;;;;;;5015359;28;20411;-89
2022/06/01 09:26:53;;;;;;;0.00;0.00;;;26.40;82.70;;;;;;5016026;28;20092;-88
2022/06/01 09:29:21;;;;;;;0.10;0.10;;;26.10;83.40;;;;;;5035218;28;20088;-89
2022/06/01 09:31:48;;;;;;;0.10;0.10;;;25.10;79.60;;;;;;5019384;28;20472;-88
2022/06/01 09:34:16;;;;;;;0.00;0.00;;;24.10;84.00;;;;;;4999326;28;20075;-86
2022/06/01 09:37:07;;;;;;;0.10;0.10;;;22.70;83.00;;;;;;5001636;28;20085;-86
2022/06/01 09:39:34;;;;;;;0.35;0.30;;;21.60;87.60;;;;;;4999280;28;20045;-86
2022/06/01 09:42:28;;;;;;;0.10;0.10;;;20.90;88.00;;;;;;5015849;28;20052;-86
2022/06/01 09:44:59;;;;;;;0.10;0.10;;;20.50;89.30;;;;;;4997371;28;20144;-86
2022/06/01 09:47:39;;;;;;;0.00;0.00;;;20.40;90.80;;;;;;5032306;28;20041;-85
2022/06/01 09:50:26;;;;;;;0.20;0.17;;;20.00;91.10;;;;;;5025996;28;20478;-82
2022/06/01 09:53:15;;;;;;;0.10;0.10;;;19.60;92.50;;;;;;5019055;28;20127;-83
2022/06/01 09:55:50;;;;;;;0.10;0.10;;;19.20;94.00;;;;;;5035552;28;20053;-83
2022/06/01 10:06:54;;;;;;;0.10;0.10;;;17.20;99.90;;;;;;5021654;28;20425;-81
2022/06/01 10:09:26;;;;;;;0.20;0.20;;;16.70;99.90;;;;;;5030244;28;20068;-81
2022/06/01 10:11:54;;;;;;;0.00;0.00;;;16.40;99.90;;;;;;5004575;28;20090;-81
2022/06/01 10:14:30;;;;;;;0.20;0.20;;;16.00;99.90;;;;;;5019666;28;20612;-81
2022/06/01 10:17:38;;;;;;;0.00;0.00;;;15.70;99.90;;;;;;5035417;28;20128;-81
2022/06/01 10:20:16;;;;;;;;;;;15.40;99.90;;;;;;5006239;28;20065;-81
2022/06/01 10:23:01;;;;;;;0.00;0.00;;;15.30;99.90;;;;;;5016008;28;19917;-87
2022/06/01 10:25:39;;;;;;;0.57;0.57;;;15.10;99.90;;;;;;5015121;28;20479;-87
2022/06/01 10:28:39;;;;;;;0.00;0.00;;;15.00;99.90;;;;;;5015795;28;20037;-86
2022/06/01 10:31:13;;;;;;;0.00;0.00;;;14.90;99.90;;;;;;5011015;28;20065;-87
2022/06/01 10:33:47;;;;;;;0.00;0.00;;;15.10;99.90;;;;;;5029682;28;20120;-87
2022/06/01 10:36:21;;;;;;;0.10;0.10;;;15.20;99.90;;;;;;5029191;28;20088;-87
2022/06/01 10:39:01;;;;;;;0.30;0.30;;;15.50;99.90;;;;;;5027212;28;20040;-83
2022/06/01 10:41:38;;;;;;;0.00;0.00;;;16.70;99.90;;;;;;5014837;28;20041;-82
2022/06/01 10:44:04;;;;;;;0.00;0.00;;;18.60;99.90;;;;;;5035251;28;20120;-83
2022/06/01 10:46:35;;;;;;;0.08;0.08;;;20.50;98.80;;;;;;5022548;28;20124;-82
2022/06/01 10:49:22;;;;;;;0.38;0.38;;;22.40;96.70;;;;;;5028428;28;20052;-83
2022/06/01 10:52:11;;;;;;;0.10;0.10;;;23.40;93.80;;;;;;5029723;28;20460;-82
2022/06/01 10:54:59;;;;;;;0.00;0.00;;;24.50;86.30;;;;;;5018835;28;20041;-82
2022/06/01 10:57:25;;;;;;;0.10;0.10;;;24.90;78.90;;;;;;5018606;28;20479;-81
2022/06/01 10:59:51;;;;;;;0.10;0.10;;;24.90;81.50;;;;;;5021150;28;20056;-81
2022/06/01 11:02:26;;;;;;;0.00;0.00;;;24.30;81.20;;;;;;5010764;28;20123;-81
2022/06/01 11:05:14;;;;;;;0.05;0.05;;;23.20;80.40;;;;;;5035140;28;20043;-81
2022/06/01 11:07:43;;;;;;;0.10;0.10;;;22.20;83.60;;;;;;5023406;28;20048;-81
2022/06/01 11:10:18;;;;;;;0.00;0.00;;;21.40;90.80;;;;;;5013756;28;20119;-81
2022/06/01 11:12:55;;;;;;;0.98;0.32;;;21.00;91.80;;;;;;5036416;28;20036;-84
2022/06/01 11:15:30;;;;;;;0.00;0.00;;;20.60;92.90;;;;;;5020928;28;20072;-85
2022/06/01 11:18:06;;;;;;;0.10;0.10;;;20.20;93.90;;;;;;5034977;28;20045;-86
2022/06/01 11:21:13;;;;;;;0.08;0.08;;;19.70;95.60;;;;;;5040481;28;20048;-85
2022/06/01 11:23:48;;;;;;;0.00;0.00;;;18.90;96.90;;;;;;5031250;28;20559;-84
2022/06/01 11:26:21;;;;;;;0.00;0.00;;;18.30;98.50;;;;;;5016394;28;20116;-85
2022/06/01 11:28:56;;;;;;;0.00;0.00;;;16.70;99.90;;;;;;5029995;28;20037;-84
2022/06/01 11:31:25;;;;;;;0.00;0.00;;;16.70;99.90;;;;;;5020419;28;20033;-83
2022/06/01 11:34:01;;;;;;;0.10;0.10;;;16.00;99.90;;;;;;5020800;28;20090;-83
2022/06/01 11:37:06;;;;;;;0.10;0.10;;;15.40;99.90;;;;;;5032101;28;20128;-83
2022/06/01 11:39:41;;;;;;;0.00;0.00;;;14.70;99.90;;;;;;4986135;28;20068;-83
2022/06/01 11:42:19;;;;;;;0.00;0.00;;;14.00;99.90;;;;;;5018150;28;20476;-85
2022/06/01 11:45:09;;;;;;;0.10;0.10;;;13.20;99.90;;;;;;5017750;28;20076;-85
2022/06/01 11:47:46;;;;;;;0.00;0.00;;;12.90;99.90;;;;;;5016871;28;20132;-87
2022/06/01 11:50:24;;;;;;;0.08;0.08;;;12.60;99.90;;;;;;5021618;28;20036;-88
2022/06/01 11:52:56;;;;;;;0.00;0.00;;;12.30;99.90;;;;;;5037434;28;20132;-89
2022/06/01 11:55:44;;;;;;;0.00;0.00;;;12.10;99.90;;;;;;5037948;28;20037;-89
2022/06/01 11:58:09;;;;;;;0.08;0.08;;;12.00;99.90;;;;;;5037454;28;20041;-89
2022/06/01 12:00:51;;;;;;;0.00;0.00;;;11.80;99.90;;;;;;5018970;28;20041;-88
2022/06/01 12:03:17;;;;;;;0.10;0.10;;;11.90;99.90;;;;;;5036573;28;20585;-87
2022/06/01 12:06:04;;;;;;;0.00;0.00;;;11.90;99.90;;;;;;5040376;28;20128;-87
2022/06/01 12:08:53;;;;;;;0.00;0.00;;;12.00;99.90;;;;;;5036520;28;20041;-87
2022/06/01 12:11:40;;;;;;;0.00;0.00;;;12.00;99.90;;;;;;5026313;28;20045;-89
2022/06/01 12:14:31;;;;;;;0.00;0.00;;;12.00;99.90;;;;;;5035684;28;20079;-89
2022/06/01 12:17:15;;;;;;;0.00;0.00;;;12.00;99.90;;;;;;5034067;28;20123;-82
2022/06/01 12:19:45;;;;;;;0.10;0.10;;;11.90;99.90;;;;;;5041932;28;20037;-84
2022/06/01 12:28:31;;;;;;;0.20;0.20;;;11.90;99.90;;;;;;5022744;28;20045;-84
2022/06/01 12:28:33;;;;;;;0.10;0.10;;;11.80;99.90;;;;;;5036124;28;20053;-84
2022/06/01 12:31:23;;;;;;;0.00;0.00;;;11.90;99.90;;;;;;4950250;28;20129;-84
2022/06/01 12:34:03;;;;;;;0.17;0.17;;;12.10;99.90;;;;;;4970231;28;20030;-84
2022/06/01 12:37:06;;;;;;;0.03;0.03;;;12.60;99.90;;;;;;5013859;28;20079;-82
2022/06/01 12:39:38;;;;;;;0.00;0.00;;;13.60;99.90;;;;;;5033703;28;20105;-81
2022/06/01 12:42:14;;;;;;;0.10;0.10;;;14.70;99.90;;;;;;5034831;28;20086;-82
2022/06/01 12:44:44;;;;;;;0.00;0.00;;;15.90;99.90;;;;;;5008049;28;20041;-81
2022/06/01 12:47:31;;;;;;;0.05;0.05;;;17.30;99.90;;;;;;5025842;28;20075;-81
2022/06/01 12:50:04;;;;;;;;;;;19.00;99.90;;;;;;5023063;28;20038;-82
2022/06/01 12:52:31;;;;;;;0.00;0.00;;;20.10;99.90;;;;;;5029389;28;19966;-87
2022/06/01 12:55:00;;;;;;;0.00;0.00;;;20.70;99.90;;;;;;5025983;28;20111;-87
2022/06/01 12:57:31;;;;;;;0.40;0.40;;;21.10;99.90;;;;;;5033232;28;20063;-88
2022/06/01 13:00:04;;;;;;;0.20;0.20;;;21.10;99.90;;;;;;5027521;28;20040;-87
2022/06/01 13:02:33;;;;;;;0.10;0.10;;;21.30;99.90;;;;;;5012170;28;20038;-87
2022/06/01 13:05:00;;;;;;;0.00;0.00;;;22.50;99.90;;;;;;5030779;28;20052;-87
2022/06/01 13:07:32;;;;;;;0.00;0.00;;;22.60;99.90;;;;;;5034378;28;20045;-87
2022/06/01 13:10:09;;;;;;;0.00;0.00;;;23.20;99.90;;;;;;5017764;28;20406;-83
2022/06/01 13:12:37;;;;;;;0.00;0.00;;;23.90;99.90;;;;;;5051721;28;20051;-83
2022/06/01 13:15:24;;;;;;;0.05;0.05;;;24.40;99.30;;;;;;5028818;28;20051;-81
2022/06/01 13:17:53;;;;;;;0.10;0.10;;;24.60;96.70;;;;;;5022398;28;20101;-82
2022/06/01 13:20:37;;;;;;;0.40;0.40;;;24.90;95.60;;;;;;5035920;28;20068;-81
2022/06/01 13:23:06;;;;;;;0.03;0.03;;;25.00;95.20;;;;;;5031989;28;20069;-81
2022/06/01 13:25:34;;;;;;;0.10;0.10;;;24.70;94.30;;;;;;5034804;28;20045;-80
2022/06/01 13:28:01;;;;;;;0.30;0.30;;;23.80;93.80;;;;;;5007197;28;20041;-80
2022/06/01 13:30:31;;;;;;;0.52;0.52;;;22.50;95.30;;;;;;4998964;28;20043;-80
2022/06/01 13:32:57;;;;;;;0.00;0.00;;;21.50;95.10;;;;;;5034256;28;20116;-80
2022/06/01 13:36:04;;;;;;;0.00;0.00;;;20.50;97.70;;;;;;5033060;28;20376;-80
2022/06/01 13:38:40;;;;;;;0.35;0.35;;;19.50;98.20;;;;;;4934089;29;20058;-80
2022/06/01 13:41:11;;;;;;;0.00;0.00;;;18.30;99.90;;;;;;4912201;29;20046;-80
2022/06/01 13:43:43;;;;;;;0.22;0.13;;;17.50;99.90;;;;;;4981469;28;20124;-82